createdAt,value
2018-09-04T00:00:45.944Z,15.83
2018-09-04T00:03:14.388Z,16.90
2018-09-04T00:05:42.593Z,16.97
2018-09-04T00:08:10.769Z,16.73
2018-09-04T00:10:38.917Z,16.30
2018-09-04T00:13:07.128Z,16.33
2018-09-04T00:15:35.282Z,15.63
2018-09-04T00:18:03.517Z,16.00
2018-09-04T00:20:31.699Z,16.87
2018-09-04T00:22:59.865Z,16.70
2018-09-04T00:25:28.045Z,16.73
2018-09-04T00:27:56.220Z,17.37
2018-09-04T00:30:24.430Z,18.00
2018-09-04T00:32:52.621Z,18.17
2018-09-04T00:35:20.883Z,16.30
2018-09-04T00:37:49.049Z,17.47
2018-09-04T00:40:17.296Z,17.70
2018-09-04T00:42:45.515Z,17.63
2018-09-04T00:45:13.712Z,17.43
2018-09-04T00:47:41.907Z,17.53
2018-09-04T00:50:10.153Z,17.57
2018-09-04T00:52:38.363Z,17.53
2018-09-04T00:55:06.599Z,18.20
2018-09-04T00:57:34.816Z,17.50
2018-09-04T01:00:02.950Z,18.80
2018-09-04T01:02:31.168Z,17.87
2018-09-04T01:04:59.401Z,17.87
2018-09-04T01:07:27.659Z,19.20
2018-09-04T01:09:55.828Z,19.20
2018-09-04T01:12:24.032Z,18.40
2018-09-04T01:14:55.164Z,17.50
2018-09-04T01:17:23.486Z,17.53
2018-09-04T01:19:51.710Z,17.37
2018-09-04T01:22:19.965Z,17.50
2018-09-04T01:24:48.139Z,17.70
2018-09-04T01:27:16.344Z,18.40
2018-09-04T01:29:44.576Z,17.07
2018-09-04T01:32:12.724Z,18.03
2018-09-04T01:34:40.917Z,16.33
2018-09-04T01:37:09.133Z,16.03
2018-09-04T01:39:37.432Z,20.13
2018-09-04T01:42:05.637Z,24.07
2018-09-04T01:44:33.822Z,22.70
2018-09-04T01:47:02.136Z,23.50
2018-09-04T01:49:30.324Z,23.87
2018-09-04T01:51:58.544Z,24.23
2018-09-04T01:54:26.706Z,22.93
2018-09-04T01:56:54.921Z,23.47
2018-09-04T01:59:23.140Z,20.23
2018-09-04T02:01:51.383Z,20.83
2018-09-04T02:04:19.560Z,19.70
2018-09-04T02:06:47.833Z,18.50
2018-09-04T02:09:16.106Z,17.87
2018-09-04T02:11:44.364Z,17.53
2018-09-04T02:14:12.624Z,16.97
2018-09-04T02:16:40.838Z,17.93
2018-09-04T02:19:09.055Z,16.50
2018-09-04T02:21:37.239Z,18.30
2018-09-04T02:24:05.448Z,18.57
2018-09-04T02:26:33.676Z,17.13
2018-09-04T02:29:01.915Z,16.00
2018-09-04T02:31:30.111Z,17.07
2018-09-04T02:33:58.337Z,15.10
2018-09-04T02:36:26.924Z,15.70
2018-09-04T02:38:55.146Z,15.80
2018-09-04T02:41:23.471Z,14.63
2018-09-04T02:43:51.628Z,16.50
2018-09-04T02:46:19.842Z,16.33
2018-09-04T02:48:48.060Z,17.13
2018-09-04T02:51:16.275Z,17.60
2018-09-04T02:53:44.478Z,19.23
2018-09-04T02:56:12.725Z,16.97
2018-09-04T02:58:41.049Z,17.17
2018-09-04T03:01:09.299Z,17.07
2018-09-04T03:03:37.470Z,16.27
2018-09-04T03:06:05.695Z,20.20
2018-09-04T03:08:33.897Z,20.37
2018-09-04T03:11:02.066Z,20.07
2018-09-04T03:13:30.325Z,20.20
2018-09-04T03:15:58.445Z,19.87
2018-09-04T03:18:26.806Z,19.43
2018-09-04T03:20:55.023Z,19.07
2018-09-04T03:23:23.204Z,19.20
2018-09-04T03:25:51.428Z,19.20
2018-09-04T03:28:19.673Z,17.77
2018-09-04T03:30:47.958Z,15.83
2018-09-04T03:33:16.178Z,17.13
2018-09-04T03:35:44.366Z,16.50
2018-09-04T03:38:12.572Z,16.37
2018-09-04T03:40:40.786Z,16.57
2018-09-04T03:43:08.995Z,17.33
2018-09-04T03:45:37.188Z,17.70
2018-09-04T03:48:05.692Z,17.80
2018-09-04T03:50:34.022Z,18.10
2018-09-04T03:53:02.201Z,17.23
2018-09-04T03:55:30.411Z,17.40
2018-09-04T03:57:59.245Z,18.00
2018-09-04T04:00:27.451Z,18.47
2018-09-04T04:02:55.652Z,17.37
2018-09-04T04:05:23.874Z,17.53
2018-09-04T04:07:52.040Z,17.03
2018-09-04T04:10:20.287Z,16.70
2018-09-04T04:12:48.480Z,16.47
2018-09-04T04:15:16.820Z,16.70
2018-09-04T04:17:45.068Z,15.07
2018-09-04T04:20:13.291Z,15.70
2018-09-04T04:22:41.495Z,15.83
2018-09-04T04:25:09.661Z,17.27
2018-09-04T04:27:37.916Z,18.20
2018-09-04T04:30:06.492Z,21.30
2018-09-04T04:32:34.767Z,22.43
2018-09-04T04:35:03.343Z,21.63
2018-09-04T04:37:31.730Z,20.77
2018-09-04T04:39:59.987Z,19.60
2018-09-04T04:42:28.266Z,20.70
2018-09-04T04:44:56.472Z,19.77
2018-09-04T04:47:30.122Z,18.20
2018-09-04T04:49:58.539Z,19.17
2018-09-04T04:52:26.884Z,18.53
2018-09-04T04:54:55.111Z,18.57
2018-09-04T04:57:23.299Z,18.90
2018-09-04T04:59:51.516Z,18.43
2018-09-04T05:02:19.682Z,17.77
2018-09-04T05:04:47.935Z,19.60
2018-09-04T05:07:16.153Z,18.53
2018-09-04T05:09:44.414Z,18.10
2018-09-04T05:12:12.651Z,19.57
2018-09-04T05:14:40.856Z,18.70
2018-09-04T05:17:09.076Z,17.20
2018-09-04T05:19:37.292Z,18.00
2018-09-04T05:22:05.594Z,18.87
2018-09-04T05:24:33.822Z,17.87
2018-09-04T05:27:02.100Z,18.27
2018-09-04T05:29:30.384Z,18.33
2018-09-04T05:32:05.544Z,17.47
2018-09-04T05:34:33.781Z,17.40
2018-09-04T05:37:02.356Z,16.87
2018-09-04T05:39:30.685Z,18.83
2018-09-04T05:42:33.968Z,17.47
2018-09-04T05:45:02.243Z,18.60
2018-09-04T05:47:34.229Z,17.90
2018-09-04T05:50:02.918Z,19.20
2018-09-04T05:52:31.281Z,19.47
2018-09-04T05:54:59.511Z,18.33
2018-09-04T05:57:27.755Z,18.93
2018-09-04T05:59:56.062Z,19.67
2018-09-04T06:02:24.349Z,19.53
2018-09-04T06:04:52.667Z,21.73
2018-09-04T06:07:20.847Z,21.93
2018-09-04T06:09:49.044Z,23.17
2018-09-04T06:12:17.227Z,21.70
2018-09-04T06:14:45.447Z,20.37
2018-09-04T06:17:13.677Z,19.00
2018-09-04T06:19:42.037Z,19.73
2018-09-04T06:22:10.368Z,19.60
2018-09-04T06:24:38.576Z,19.43
2018-09-04T06:27:06.805Z,18.33
2018-09-04T06:29:35.054Z,18.10
2018-09-04T06:32:03.191Z,17.00
2018-09-04T06:34:31.422Z,16.93
2018-09-04T06:36:59.703Z,18.40
2018-09-04T06:39:27.946Z,17.47
2018-09-04T06:41:56.132Z,17.83
2018-09-04T06:44:24.344Z,18.43
2018-09-04T06:46:52.562Z,17.40
2018-09-04T06:49:20.739Z,16.17
2018-09-04T06:51:49.003Z,17.63
2018-09-04T06:54:17.183Z,16.37
2018-09-04T06:56:45.415Z,18.20
2018-09-04T06:59:13.665Z,18.13
2018-09-04T07:01:41.873Z,18.27
2018-09-04T07:04:10.129Z,19.67
2018-09-04T07:06:38.332Z,20.63
2018-09-04T07:09:08.541Z,22.42
2018-09-04T07:11:36.710Z,20.30
2018-09-04T07:14:04.962Z,21.57
2018-09-04T07:16:33.217Z,22.42
2018-09-04T07:19:01.382Z,21.00
2018-09-04T07:21:29.611Z,21.25
2018-09-04T07:23:57.897Z,21.12
2018-09-04T07:26:26.399Z,20.55
2018-09-04T07:28:54.679Z,22.48
2018-09-04T07:31:22.852Z,25.08
2018-09-04T07:33:51.061Z,25.40
2018-09-04T07:36:19.334Z,22.10
2018-09-04T07:38:47.520Z,22.98
2018-09-04T07:41:15.707Z,21.50
2018-09-04T07:43:43.941Z,27.13
2018-09-04T07:46:12.126Z,27.40
2018-09-04T07:48:40.281Z,27.00
2018-09-04T07:51:08.561Z,25.20
2018-09-04T07:53:36.767Z,25.57
2018-09-04T07:56:05.004Z,28.98
2018-09-04T07:58:33.236Z,27.85
2018-09-04T08:01:01.478Z,26.33
2018-09-04T08:03:29.733Z,26.33
2018-09-04T08:05:57.946Z,26.05
2018-09-04T08:08:26.114Z,23.42
2018-09-04T08:10:54.287Z,24.75
2018-09-04T08:13:22.490Z,25.17
2018-09-04T08:15:50.751Z,28.62
2018-09-04T08:18:18.911Z,25.00
2018-09-04T08:20:47.126Z,25.82
2018-09-04T08:23:15.295Z,26.02
2018-09-04T08:25:43.464Z,26.37
2018-09-04T08:28:11.700Z,27.22
2018-09-04T08:30:39.944Z,24.12
2018-09-04T08:33:08.108Z,24.82
2018-09-04T08:35:36.325Z,25.20
2018-09-04T08:38:04.561Z,23.40
2018-09-04T08:40:33.309Z,23.05
2018-09-04T08:43:01.841Z,21.02
2018-09-04T08:45:31.057Z,22.77
2018-09-04T08:48:00.595Z,25.70
2018-09-04T08:50:30.134Z,22.48
2018-09-04T08:52:58.290Z,22.77
2018-09-04T08:55:26.566Z,23.05
2018-09-04T08:57:54.689Z,22.70
2018-09-04T09:00:22.903Z,26.17
2018-09-04T09:02:51.076Z,22.32
2018-09-04T09:05:19.402Z,20.10
2018-09-04T09:07:47.593Z,21.23
2018-09-04T09:10:15.802Z,22.15
2018-09-04T09:12:43.986Z,21.55
2018-09-04T09:15:12.241Z,19.75
2018-09-04T09:17:40.423Z,20.88
2018-09-04T09:20:08.629Z,19.52
2018-09-04T09:22:36.844Z,21.70
2018-09-04T09:25:05.157Z,19.80
2018-09-04T09:27:33.326Z,18.70
2018-09-04T09:30:01.543Z,19.15
2018-09-04T09:32:29.720Z,17.98
2018-09-04T09:34:57.896Z,19.32
2018-09-04T09:37:26.061Z,17.25
2018-09-04T09:39:54.388Z,16.55
2018-09-04T09:42:22.555Z,15.53
2018-09-04T09:44:50.747Z,14.75
2018-09-04T09:47:19.001Z,15.28
2018-09-04T09:49:47.206Z,15.00
2018-09-04T09:52:15.408Z,14.23
2018-09-04T09:54:43.763Z,13.60
2018-09-04T09:57:11.970Z,15.68
2018-09-04T09:59:40.510Z,16.15
2018-09-04T10:02:12.949Z,14.00
2018-09-04T10:04:41.884Z,13.55
2018-09-04T10:07:10.193Z,14.93
2018-09-04T10:09:38.384Z,15.68
2018-09-04T10:12:06.574Z,14.25
2018-09-04T10:14:34.779Z,12.93
2018-09-04T10:17:03.033Z,12.18
2018-09-04T10:19:31.422Z,12.35
2018-09-04T10:21:59.643Z,11.83
2018-09-04T10:24:27.850Z,12.55
2018-09-04T10:26:56.070Z,12.25
2018-09-04T10:29:24.295Z,12.13
2018-09-04T10:31:52.527Z,10.95
2018-09-04T10:34:20.798Z,10.68
2018-09-04T10:36:49.068Z,10.05
2018-09-04T10:39:22.669Z,8.93
2018-09-04T10:41:50.940Z,10.45
2018-09-04T10:44:19.200Z,10.08
2018-09-04T10:46:47.363Z,10.38
2018-09-04T10:49:15.686Z,10.35
2018-09-04T10:51:43.875Z,9.98
2018-09-04T10:54:12.086Z,10.03
2018-09-04T10:56:40.289Z,8.83
2018-09-04T10:59:08.665Z,9.75
2018-09-04T11:01:36.923Z,9.35
2018-09-04T11:04:05.111Z,10.05
2018-09-04T11:06:33.318Z,10.25
2018-09-04T11:09:01.590Z,10.00
2018-09-04T11:11:29.815Z,9.63
2018-09-04T11:13:58.010Z,10.55
2018-09-04T11:16:26.299Z,9.45
2018-09-04T11:18:54.479Z,9.70
2018-09-04T11:21:22.725Z,9.88
2018-09-04T11:23:51.006Z,9.25
2018-09-04T11:26:19.170Z,8.53
2018-09-04T11:28:50.369Z,8.63
2018-09-04T11:31:18.589Z,8.53
2018-09-04T11:33:46.793Z,8.48
2018-09-04T11:36:15.173Z,9.65
2018-09-04T11:38:43.358Z,8.20
2018-09-04T11:41:11.620Z,8.33
2018-09-04T11:43:39.808Z,8.33
2018-09-04T11:46:08.240Z,8.68
2018-09-04T11:48:38.895Z,8.33
2018-09-04T11:51:08.584Z,8.48
2018-09-04T11:53:36.812Z,8.83
2018-09-04T11:56:05.090Z,8.15
2018-09-04T11:58:33.369Z,8.43
2018-09-04T12:01:03.217Z,8.83
2018-09-04T12:03:31.454Z,10.55
2018-09-04T12:05:59.672Z,9.58
2018-09-04T12:08:27.838Z,8.40
2018-09-04T12:10:56.042Z,8.20
2018-09-04T12:13:30.350Z,8.53
2018-09-04T12:15:59.226Z,8.13
2018-09-04T12:18:27.686Z,8.15
2018-09-04T12:20:57.274Z,8.13
2018-09-04T12:23:25.429Z,8.53
2018-09-04T12:25:54.976Z,7.65
2018-09-04T12:28:23.185Z,7.58
2018-09-04T12:30:51.440Z,7.85
2018-09-04T12:33:19.697Z,8.28
2018-09-04T12:35:47.831Z,8.05
2018-09-04T12:38:17.410Z,7.85
2018-09-04T12:40:45.966Z,8.13
2018-09-04T12:43:14.161Z,8.55
2018-09-04T12:45:47.771Z,8.58
2018-09-04T12:48:32.658Z,8.10
2018-09-04T12:51:02.953Z,9.18
2018-09-04T12:53:32.165Z,9.00
2018-09-04T12:56:00.460Z,9.55
2018-09-04T12:58:28.739Z,8.85
2018-09-04T13:00:57.707Z,8.40
2018-09-04T13:03:27.038Z,8.83
2018-09-04T13:05:55.296Z,8.40
2018-09-04T13:08:25.054Z,8.73
2018-09-04T13:10:53.258Z,9.28
2018-09-04T13:13:21.509Z,8.50
2018-09-04T13:15:52.546Z,9.08
2018-09-04T13:18:20.797Z,8.65
2018-09-04T13:20:49.303Z,9.08
2018-09-04T13:23:17.679Z,9.00
2018-09-04T13:25:46.236Z,10.85
2018-09-04T13:28:14.451Z,9.40
2018-09-04T13:30:42.760Z,8.60
2018-09-04T13:33:12.450Z,8.68
2018-09-04T13:35:40.968Z,8.75
2018-09-04T13:38:10.089Z,8.43
2018-09-04T13:40:38.413Z,8.08
2018-09-04T13:43:06.825Z,9.63
2018-09-04T13:45:35.130Z,8.13
2018-09-04T13:48:04.118Z,8.33
2018-09-04T13:50:33.474Z,8.73
2018-09-04T13:53:02.813Z,8.38
2018-09-04T13:55:31.689Z,8.43
2018-09-04T13:58:00.523Z,8.28
2018-09-04T14:00:29.430Z,8.70
2018-09-04T14:02:58.337Z,8.58
2018-09-04T14:05:27.057Z,8.25
2018-09-04T14:07:55.558Z,8.60
2018-09-04T14:10:24.520Z,9.95
2018-09-04T14:12:52.906Z,9.05
2018-09-04T14:15:21.253Z,9.70
2018-09-04T14:17:49.623Z,9.30
2018-09-04T14:20:17.875Z,8.68
2018-09-04T14:22:46.109Z,8.13
2018-09-04T14:25:14.266Z,9.05
2018-09-04T14:27:42.468Z,8.68
2018-09-04T14:30:17.674Z,9.28
2018-09-04T14:32:38.914Z,8.63
2018-09-04T14:35:07.821Z,9.00
2018-09-04T14:37:36.174Z,9.20
2018-09-04T14:40:04.566Z,9.20
2018-09-04T14:42:32.831Z,8.75
2018-09-04T14:45:01.168Z,9.10
2018-09-04T14:47:29.389Z,9.15
2018-09-04T14:49:57.565Z,9.23
2018-09-04T14:52:25.739Z,8.85
2018-09-04T14:54:55.011Z,9.28
2018-09-04T14:57:25.226Z,10.20
2018-09-04T14:59:53.543Z,8.98
2018-09-04T15:02:22.481Z,9.08
2018-09-04T15:04:50.955Z,9.93
2018-09-04T15:07:19.894Z,9.48
2018-09-04T15:09:49.848Z,11.15
2018-09-04T15:12:19.151Z,11.10
2018-09-04T15:14:48.425Z,12.13
2018-09-04T15:17:17.776Z,13.98
2018-09-04T15:19:46.335Z,15.13
2018-09-04T15:22:15.463Z,15.45
2018-09-04T15:24:44.158Z,15.45
2018-09-04T15:27:13.024Z,16.25
2018-09-04T15:29:41.551Z,15.45
2018-09-04T15:32:10.041Z,15.32
2018-09-04T15:34:38.655Z,15.28
2018-09-04T15:37:07.439Z,15.80
2018-09-04T15:39:35.731Z,16.02
2018-09-04T15:42:03.959Z,15.63
2018-09-04T15:44:32.310Z,14.73
2018-09-04T15:47:01.327Z,15.30
2018-09-04T15:49:35.292Z,15.90
2018-09-04T15:52:03.842Z,15.10
2018-09-04T15:54:32.594Z,15.00
2018-09-04T15:57:00.908Z,15.75
2018-09-04T15:59:29.119Z,16.07
2018-09-04T16:01:58.040Z,16.00
2018-09-04T16:04:26.813Z,16.20
2018-09-04T16:06:55.380Z,15.40
2018-09-04T16:09:25.182Z,15.32
2018-09-04T16:11:54.341Z,15.23
2018-09-04T16:14:23.539Z,14.75
2018-09-04T16:16:51.802Z,15.18
2018-09-04T16:19:20.957Z,15.70
2018-09-04T16:21:50.477Z,14.60
2018-09-04T16:24:18.884Z,14.85
2018-09-04T16:26:47.321Z,15.38
2018-09-04T16:29:17.428Z,15.03
2018-09-04T16:31:46.681Z,15.18
2018-09-04T16:34:18.997Z,15.32
2018-09-04T16:36:48.262Z,15.10
2018-09-04T16:39:18.960Z,15.85
2018-09-04T16:41:47.664Z,14.83
2018-09-04T16:44:16.826Z,16.80
2018-09-04T16:46:46.233Z,15.45
2018-09-04T16:49:16.345Z,15.35
2018-09-04T16:51:44.714Z,14.68
2018-09-04T16:54:14.539Z,15.00
2018-09-04T16:56:43.216Z,15.43
2018-09-04T16:59:11.533Z,15.35
2018-09-04T17:01:40.214Z,15.58
2018-09-04T17:04:09.157Z,15.45
2018-09-04T17:06:37.529Z,15.60
2018-09-04T17:09:07.245Z,14.53
2018-09-04T17:11:36.584Z,14.53
2018-09-04T17:14:05.347Z,14.75
2018-09-04T17:16:34.909Z,14.93
2018-09-04T17:19:03.181Z,15.20
2018-09-04T17:21:31.346Z,14.33
2018-09-04T17:23:59.558Z,14.85
2018-09-04T17:26:27.743Z,16.52
2018-09-04T17:28:55.910Z,15.58
2018-09-04T17:31:24.064Z,15.58
2018-09-04T17:37:02.993Z,15.10
2018-09-04T17:39:31.203Z,14.03
2018-09-04T17:41:59.372Z,13.93
2018-09-04T17:44:27.628Z,13.78
2018-09-04T17:46:55.819Z,14.90
2018-09-04T17:49:24.135Z,14.83
2018-09-04T17:51:52.330Z,14.85
2018-09-04T17:54:20.538Z,14.05
2018-09-04T17:56:48.735Z,14.40
2018-09-04T17:59:17.007Z,13.98
2018-09-04T18:01:45.293Z,20.17
2018-09-04T18:04:13.453Z,16.00
2018-09-04T18:06:41.778Z,14.75
2018-09-04T18:09:09.944Z,13.93
2018-09-04T18:11:38.112Z,15.90
2018-09-04T18:14:06.352Z,15.48
2018-09-04T18:16:34.656Z,14.78
2018-09-04T18:19:02.893Z,14.25
2018-09-04T18:21:31.087Z,14.28
2018-09-04T18:23:59.296Z,14.33
2018-09-04T18:26:27.500Z,15.75
2018-09-04T18:28:56.523Z,15.20
2018-09-04T18:31:25.753Z,15.80
2018-09-04T18:33:56.127Z,14.85
2018-09-04T18:36:24.780Z,15.45
2018-09-04T18:38:54.067Z,15.20
2018-09-04T18:41:22.613Z,16.02
2018-09-04T18:43:50.880Z,17.60
2018-09-04T18:46:19.793Z,16.00
2018-09-04T18:48:48.244Z,16.25
2018-09-04T18:51:17.114Z,15.40
2018-09-04T18:53:46.978Z,15.72
2018-09-04T18:56:16.024Z,15.40
2018-09-04T18:58:44.876Z,15.35
2018-09-04T19:01:17.169Z,14.85
2018-09-04T19:03:45.687Z,14.78
2018-09-04T19:06:13.972Z,15.80
2018-09-04T19:08:42.733Z,15.40
2018-09-04T19:11:11.224Z,16.87
2018-09-04T19:13:39.600Z,16.37
2018-09-04T19:16:07.964Z,16.52
2018-09-04T19:18:36.146Z,19.57
2018-09-04T19:21:04.432Z,17.23
2018-09-04T19:23:32.603Z,16.62
2018-09-04T19:26:00.875Z,16.17
2018-09-04T19:28:29.044Z,15.78
2018-09-04T19:30:57.210Z,16.57
2018-09-04T19:33:25.586Z,17.37
2018-09-04T19:35:53.778Z,16.32
2018-09-04T19:38:21.991Z,16.02
2018-09-04T19:40:50.162Z,16.87
2018-09-04T19:43:18.516Z,15.80
2018-09-04T19:45:46.644Z,16.07
2018-09-04T19:48:15.340Z,16.62
2018-09-04T19:50:44.068Z,16.52
2018-09-04T19:53:12.271Z,17.15
2018-09-04T19:55:40.502Z,15.98
2018-09-04T19:58:09.052Z,16.40
2018-09-04T20:00:37.317Z,16.05
2018-09-04T20:03:05.777Z,17.20
2018-09-04T20:05:34.010Z,16.20
2018-09-04T20:08:02.249Z,17.27
2018-09-04T20:10:30.475Z,17.48
2018-09-04T20:12:58.739Z,17.23
2018-09-04T20:15:27.538Z,16.83
2018-09-04T20:17:55.757Z,16.40
2018-09-04T20:20:24.249Z,17.05
2018-09-04T20:22:52.677Z,17.25
2018-09-04T20:25:21.093Z,17.90
2018-09-04T20:27:49.381Z,17.52
2018-09-04T20:30:17.644Z,18.20
2018-09-04T20:32:45.982Z,18.87
2018-09-04T20:35:14.150Z,18.03
2018-09-04T20:37:42.542Z,16.83
2018-09-04T20:40:11.218Z,16.93
2018-09-04T20:42:39.702Z,18.07
2018-09-04T20:45:08.316Z,16.97
2018-09-04T20:47:36.811Z,17.35
2018-09-04T20:50:05.459Z,17.80
2018-09-04T20:52:34.017Z,17.92
2018-09-04T20:55:02.450Z,18.00
2018-09-04T20:57:31.932Z,17.27
2018-09-04T21:00:13.227Z,17.53
2018-09-04T21:02:53.093Z,17.77
2018-09-04T21:05:32.869Z,18.23
2018-09-04T21:08:17.161Z,18.97
2018-09-04T21:10:45.957Z,18.17
2018-09-04T21:13:14.652Z,19.53
2018-09-04T21:15:42.843Z,18.27
2018-09-04T21:18:11.069Z,18.27
2018-09-04T21:20:39.267Z,20.40
2018-09-04T21:23:07.435Z,19.10
2018-09-04T21:25:35.677Z,17.77
2018-09-04T21:28:03.901Z,17.37
2018-09-04T21:30:32.066Z,17.73
2018-09-04T21:33:00.269Z,16.57
2018-09-04T21:35:28.523Z,16.30
2018-09-04T21:37:56.710Z,17.60
2018-09-04T21:40:24.892Z,16.80
2018-09-04T21:42:53.206Z,17.93
2018-09-04T21:45:21.466Z,17.80
2018-09-04T21:47:49.700Z,16.77
2018-09-04T21:50:17.801Z,17.07
2018-09-04T21:52:46.045Z,18.00
2018-09-04T21:55:14.216Z,17.20
2018-09-04T21:57:42.399Z,17.77
2018-09-04T22:00:10.560Z,16.47
2018-09-04T22:02:38.737Z,16.87
2018-09-04T22:05:06.959Z,18.47
2018-09-04T22:07:35.169Z,18.13
2018-09-04T22:10:03.376Z,17.37
2018-09-04T22:12:32.232Z,18.80
2018-09-04T22:15:00.456Z,17.63
2018-09-04T22:17:28.649Z,16.83
2018-09-04T22:19:56.839Z,17.43
2018-09-04T22:22:25.074Z,18.43
2018-09-04T22:24:53.252Z,17.70
2018-09-04T22:27:21.507Z,17.20
2018-09-04T22:29:49.662Z,17.43
2018-09-04T22:32:17.840Z,18.17
2018-09-04T22:34:46.034Z,18.33
2018-09-04T22:37:14.196Z,18.13
2018-09-04T22:39:42.370Z,17.80
2018-09-04T22:42:10.526Z,18.23
2018-09-04T22:44:38.688Z,17.57
2018-09-04T22:47:06.909Z,17.37
2018-09-04T22:49:35.147Z,18.50
2018-09-04T22:52:03.342Z,18.47
2018-09-04T22:54:31.532Z,17.80
2018-09-04T22:56:59.669Z,18.73
2018-09-04T22:59:28.270Z,17.07
2018-09-04T23:01:56.455Z,18.53
2018-09-04T23:04:24.633Z,20.00
2018-09-04T23:06:52.888Z,19.03
2018-09-04T23:09:21.028Z,18.70
2018-09-04T23:11:49.197Z,18.50
2018-09-04T23:14:17.398Z,19.23
2018-09-04T23:16:45.590Z,18.23
2018-09-04T23:19:13.771Z,19.03
2018-09-04T23:21:42.010Z,19.23
2018-09-04T23:24:10.195Z,18.77
2018-09-04T23:26:38.382Z,18.80
2018-09-04T23:29:06.632Z,19.37
2018-09-04T23:31:34.814Z,18.67
2018-09-04T23:34:02.976Z,18.50
2018-09-04T23:36:31.108Z,19.90
2018-09-04T23:38:59.289Z,19.73
2018-09-04T23:41:27.431Z,19.07
2018-09-04T23:43:55.724Z,18.47
2018-09-04T23:46:23.952Z,19.80
2018-09-04T23:48:52.320Z,19.83
2018-09-04T23:51:20.442Z,20.13
2018-09-04T23:53:48.758Z,19.37
2018-09-04T23:56:17.075Z,19.60
2018-09-04T23:58:45.274Z,21.10
